createdAt,value
2019-02-19T00:01:31.855Z,92.40
2019-02-19T00:04:02.739Z,92.60
2019-02-19T00:06:33.235Z,92.70
2019-02-19T00:09:05.734Z,92.30
2019-02-19T00:11:36.577Z,92.50
2019-02-19T00:14:07.127Z,92.50
2019-02-19T00:16:37.791Z,92.50
2019-02-19T00:19:08.753Z,92.60
2019-02-19T00:21:39.228Z,92.60
2019-02-19T00:24:09.944Z,92.60
2019-02-19T00:26:40.431Z,92.70
2019-02-19T00:29:11.215Z,92.70
2019-02-19T00:31:41.798Z,92.70
2019-02-19T00:34:12.960Z,92.90
2019-02-19T00:36:43.797Z,92.80
2019-02-19T00:39:14.954Z,92.90
2019-02-19T00:41:45.598Z,93.10
2019-02-19T00:44:16.169Z,92.90
2019-02-19T00:46:46.854Z,93.10
2019-02-19T00:49:17.583Z,93.10
2019-02-19T00:51:48.165Z,93.50
2019-02-19T00:54:18.571Z,93.80
2019-02-19T00:56:49.295Z,93.80
2019-02-19T00:59:19.802Z,94.20
2019-02-19T01:01:50.545Z,94.20
2019-02-19T01:04:20.958Z,94.30
2019-02-19T01:06:51.734Z,94.20
2019-02-19T01:09:22.524Z,94.60
2019-02-19T01:11:53.128Z,94.50
2019-02-19T01:14:24.252Z,94.60
2019-02-19T01:16:55.396Z,95.00
2019-02-19T01:19:25.772Z,94.60
2019-02-19T01:21:56.554Z,94.80
2019-02-19T01:24:27.047Z,94.80
2019-02-19T01:26:57.726Z,95.20
2019-02-19T01:29:28.360Z,95.00
2019-02-19T01:31:58.944Z,94.90
2019-02-19T01:34:29.609Z,94.90
2019-02-19T01:37:00.586Z,95.00
2019-02-19T01:39:31.474Z,95.00
2019-02-19T01:42:02.217Z,95.00
2019-02-19T01:44:32.846Z,95.00
2019-02-19T01:47:03.489Z,94.90
2019-02-19T01:49:34.094Z,94.80
2019-02-19T01:52:05.092Z,94.80
2019-02-19T01:54:36.130Z,95.00
2019-02-19T01:57:07.073Z,95.00
2019-02-19T01:59:37.820Z,94.90
2019-02-19T02:02:08.391Z,94.80
2019-02-19T02:04:38.827Z,95.00
2019-02-19T02:07:09.799Z,95.00
2019-02-19T02:09:40.344Z,95.00
2019-02-19T02:12:10.783Z,95.10
2019-02-19T02:14:41.356Z,95.10
2019-02-19T02:17:11.843Z,95.10
2019-02-19T02:19:42.856Z,95.10
2019-02-19T02:22:13.509Z,95.00
2019-02-19T02:24:44.169Z,95.10
2019-02-19T02:27:15.051Z,95.00
2019-02-19T02:29:45.540Z,95.10
2019-02-19T02:32:16.121Z,95.10
2019-02-19T02:34:47.249Z,95.10
2019-02-19T02:37:18.201Z,95.00
2019-02-19T02:39:49.601Z,95.10
2019-02-19T02:42:20.420Z,95.10
2019-02-19T02:44:51.026Z,95.00
2019-02-19T02:47:21.625Z,95.10
2019-02-19T02:49:52.776Z,95.00
2019-02-19T02:52:23.401Z,95.00
2019-02-19T02:54:53.958Z,94.90
2019-02-19T02:57:24.454Z,94.90
2019-02-19T02:59:55.141Z,94.90
2019-02-19T03:02:26.144Z,95.00
2019-02-19T03:04:57.031Z,95.00
2019-02-19T03:07:29.299Z,95.10
2019-02-19T03:10:00.580Z,95.10
2019-02-19T03:12:31.077Z,95.10
2019-02-19T03:15:05.583Z,95.10
2019-02-19T03:17:36.919Z,95.20
2019-02-19T03:20:07.992Z,95.10
2019-02-19T03:22:38.577Z,95.20
2019-02-19T03:25:09.151Z,95.10
2019-02-19T03:27:40.127Z,95.20
2019-02-19T03:30:11.494Z,95.20
2019-02-19T03:32:42.295Z,95.10
2019-02-19T03:35:12.900Z,95.10
2019-02-19T03:37:43.923Z,95.00
2019-02-19T03:40:14.826Z,95.20
2019-02-19T03:42:45.637Z,95.20
2019-02-19T03:45:16.020Z,95.20
2019-02-19T03:47:47.027Z,95.20
2019-02-19T03:50:18.334Z,95.20
2019-02-19T03:52:49.104Z,95.30
2019-02-19T03:55:19.791Z,95.30
2019-02-19T03:57:50.877Z,95.40
2019-02-19T04:00:21.823Z,95.30
2019-02-19T04:02:52.566Z,95.30
2019-02-19T04:05:23.216Z,95.30
2019-02-19T04:07:53.876Z,95.40
2019-02-19T04:10:24.925Z,95.40
2019-02-19T04:12:55.655Z,95.40
2019-02-19T04:15:26.188Z,95.50
2019-02-19T04:17:56.669Z,95.50
2019-02-19T04:20:27.287Z,95.40
2019-02-19T04:22:58.075Z,95.40
2019-02-19T04:25:28.585Z,95.40
2019-02-19T04:27:59.140Z,95.70
2019-02-19T04:30:29.720Z,95.60
2019-02-19T04:33:00.347Z,96.10
2019-02-19T04:35:30.930Z,96.00
2019-02-19T04:38:01.901Z,96.00
2019-02-19T04:40:32.898Z,96.00
2019-02-19T04:43:03.588Z,95.90
2019-02-19T04:45:34.482Z,95.90
2019-02-19T04:48:04.981Z,95.90
2019-02-19T04:50:35.976Z,96.00
2019-02-19T04:53:06.524Z,96.30
2019-02-19T04:55:37.200Z,96.30
2019-02-19T04:58:08.182Z,96.30
2019-02-19T05:00:38.985Z,96.30
2019-02-19T05:03:09.419Z,96.30
2019-02-19T05:05:40.190Z,96.20
2019-02-19T05:08:10.774Z,96.20
2019-02-19T05:10:41.845Z,96.10
2019-02-19T05:13:12.550Z,96.00
2019-02-19T05:15:43.548Z,96.10
2019-02-19T05:18:14.392Z,96.20
2019-02-19T05:20:45.033Z,96.40
2019-02-19T05:23:15.481Z,96.40
2019-02-19T05:25:46.453Z,96.30
2019-02-19T05:28:17.081Z,96.50
2019-02-19T05:30:47.808Z,96.40
2019-02-19T05:33:18.470Z,96.60
2019-02-19T05:35:48.991Z,96.50
2019-02-19T05:38:19.555Z,96.70
2019-02-19T05:40:50.151Z,96.70
2019-02-19T05:43:20.739Z,96.70
2019-02-19T05:45:51.333Z,96.50
2019-02-19T05:48:24.517Z,96.50
2019-02-19T05:50:55.531Z,96.50
2019-02-19T05:53:26.283Z,96.50
2019-02-19T05:55:56.956Z,96.50
2019-02-19T05:58:27.607Z,96.60
2019-02-19T06:00:58.721Z,97.20
2019-02-19T06:03:29.443Z,97.90
2019-02-19T06:06:00.187Z,97.80
2019-02-19T06:08:31.001Z,97.40
2019-02-19T06:11:01.679Z,97.20
2019-02-19T06:13:32.157Z,97.20
2019-02-19T06:16:05.994Z,97.00
2019-02-19T06:18:36.770Z,97.10
2019-02-19T06:21:07.376Z,97.10
2019-02-19T06:23:38.210Z,97.00
2019-02-19T06:26:08.681Z,97.00
2019-02-19T06:28:39.709Z,97.10
2019-02-19T06:31:10.853Z,97.00
2019-02-19T06:33:41.642Z,97.00
2019-02-19T06:36:12.528Z,96.90
2019-02-19T06:38:43.217Z,97.00
2019-02-19T06:41:13.819Z,96.90
2019-02-19T06:43:44.480Z,97.00
2019-02-19T06:46:15.313Z,97.10
2019-02-19T06:48:45.955Z,97.00
2019-02-19T06:51:16.925Z,97.10
2019-02-19T06:53:47.683Z,97.10
2019-02-19T06:56:18.364Z,97.10
2019-02-19T06:58:48.933Z,97.10
2019-02-19T07:01:21.192Z,97.10
2019-02-19T07:03:56.466Z,97.10
2019-02-19T07:06:27.468Z,97.10
2019-02-19T07:08:58.328Z,97.10
2019-02-19T07:11:29.009Z,96.90
2019-02-19T07:13:59.652Z,97.00
2019-02-19T07:16:30.367Z,97.00
2019-02-19T07:19:01.340Z,97.00
2019-02-19T07:21:33.344Z,97.20
2019-02-19T07:24:04.664Z,97.00
2019-02-19T07:26:35.793Z,97.10
2019-02-19T07:29:06.478Z,97.10
2019-02-19T07:31:37.080Z,97.00
2019-02-19T07:34:07.648Z,97.10
2019-02-19T07:36:38.173Z,97.00
2019-02-19T07:39:08.663Z,97.10
2019-02-19T07:41:40.189Z,97.10
2019-02-19T07:44:11.159Z,97.10
2019-02-19T07:46:41.808Z,97.10
2019-02-19T07:49:12.564Z,97.20
2019-02-19T07:51:43.115Z,97.10
2019-02-19T07:54:13.395Z,97.10
2019-02-19T07:56:46.299Z,97.40
2019-02-19T07:59:17.374Z,97.20
2019-02-19T08:01:48.030Z,97.30
2019-02-19T08:04:18.752Z,97.50
2019-02-19T08:06:49.229Z,97.30
2019-02-19T08:09:19.923Z,97.20
2019-02-19T08:11:50.454Z,97.40
2019-02-19T08:14:21.076Z,97.30
2019-02-19T08:16:51.720Z,97.50
2019-02-19T08:19:22.742Z,97.50
2019-02-19T08:21:53.393Z,97.50
2019-02-19T08:24:24.040Z,97.30
2019-02-19T08:26:55.037Z,97.40
2019-02-19T08:29:25.724Z,97.30
2019-02-19T08:31:56.469Z,97.40
2019-02-19T08:34:27.440Z,97.30
2019-02-19T08:36:58.107Z,97.40
2019-02-19T08:39:29.246Z,97.30
2019-02-19T08:41:59.807Z,97.40
2019-02-19T08:44:30.694Z,97.50
2019-02-19T08:47:01.723Z,97.40
2019-02-19T08:49:32.593Z,97.40
2019-02-19T08:52:03.700Z,97.40
2019-02-19T08:54:34.458Z,97.40
2019-02-19T08:57:05.114Z,97.40
2019-02-19T08:59:35.771Z,97.70
2019-02-19T09:02:06.566Z,97.40
2019-02-19T09:04:37.578Z,97.70
2019-02-19T09:07:08.182Z,97.60
2019-02-19T09:09:38.584Z,97.40
2019-02-19T09:12:09.177Z,97.40
2019-02-19T09:14:39.858Z,97.50
2019-02-19T09:17:10.352Z,97.70
2019-02-19T09:19:41.019Z,97.70
2019-02-19T09:22:12.093Z,97.60
2019-02-19T09:24:42.594Z,97.50
2019-02-19T09:27:13.569Z,97.60
2019-02-19T09:29:44.048Z,97.70
2019-02-19T09:32:15.042Z,97.60
2019-02-19T09:34:45.799Z,97.60
2019-02-19T09:37:16.529Z,97.50
2019-02-19T09:39:47.638Z,97.40
2019-02-19T09:42:18.335Z,97.50
2019-02-19T09:44:49.555Z,97.50
2019-02-19T09:47:20.414Z,97.40
2019-02-19T09:49:50.902Z,97.50
2019-02-19T09:52:21.921Z,97.50
2019-02-19T09:54:52.367Z,97.60
2019-02-19T09:57:23.097Z,97.50
2019-02-19T09:59:53.766Z,97.50
2019-02-19T10:02:24.303Z,97.50
2019-02-19T10:04:55.054Z,97.60
2019-02-19T10:07:25.687Z,97.50
2019-02-19T10:09:56.653Z,97.60
2019-02-19T10:12:27.497Z,98.00
2019-02-19T10:14:58.291Z,97.60
2019-02-19T10:17:28.800Z,97.60
2019-02-19T10:19:59.559Z,97.60
2019-02-19T10:22:30.622Z,97.60
2019-02-19T10:25:01.419Z,97.70
2019-02-19T10:27:32.106Z,97.50
2019-02-19T10:30:02.578Z,97.70
2019-02-19T10:32:33.186Z,97.60
2019-02-19T10:35:04.057Z,97.60
2019-02-19T10:37:34.633Z,97.70
2019-02-19T10:40:07.992Z,97.50
2019-02-19T10:42:38.464Z,97.60
2019-02-19T10:45:11.884Z,97.60
2019-02-19T10:47:42.599Z,97.50
2019-02-19T10:50:13.180Z,97.70
2019-02-19T10:52:44.025Z,97.60
2019-02-19T10:55:15.245Z,97.80
2019-02-19T10:57:46.479Z,97.70
2019-02-19T11:00:19.532Z,97.80
2019-02-19T11:02:50.123Z,97.80
2019-02-19T11:05:20.886Z,97.90
2019-02-19T11:07:51.924Z,97.90
2019-02-19T11:10:22.619Z,98.00
2019-02-19T11:12:53.237Z,98.10
2019-02-19T11:15:24.589Z,98.00
2019-02-19T11:17:55.178Z,98.00
2019-02-19T11:20:26.359Z,98.10
2019-02-19T11:22:57.095Z,97.90
2019-02-19T11:25:28.071Z,97.80
2019-02-19T11:27:58.614Z,97.90
2019-02-19T11:30:29.058Z,98.00
2019-02-19T11:32:59.633Z,97.90
2019-02-19T11:35:30.609Z,98.00
2019-02-19T11:38:01.357Z,98.10
2019-02-19T11:40:31.830Z,98.20
2019-02-19T11:43:02.358Z,98.10
2019-02-19T11:45:32.977Z,98.10
2019-02-19T11:48:03.909Z,98.10
2019-02-19T11:50:34.392Z,98.20
2019-02-19T11:53:05.588Z,98.10
2019-02-19T11:55:36.662Z,98.10
2019-02-19T11:58:07.470Z,98.00
2019-02-19T12:00:39.762Z,98.10
2019-02-19T12:03:10.143Z,97.90
2019-02-19T12:05:41.037Z,98.00
2019-02-19T12:08:11.863Z,98.30
2019-02-19T12:10:42.638Z,98.10
2019-02-19T12:13:13.679Z,98.10
2019-02-19T12:15:44.405Z,98.10
2019-02-19T12:18:15.811Z,98.30
2019-02-19T12:20:46.779Z,98.30
2019-02-19T12:23:19.501Z,98.10
2019-02-19T12:25:50.219Z,98.30
2019-02-19T12:28:21.101Z,98.20
2019-02-19T12:30:51.773Z,98.20
2019-02-19T12:33:22.695Z,98.10
2019-02-19T12:35:53.490Z,98.10
2019-02-19T12:38:24.103Z,98.00
2019-02-19T12:40:55.098Z,98.30
2019-02-19T12:43:25.794Z,98.20
2019-02-19T12:45:56.774Z,98.30
2019-02-19T12:48:27.739Z,98.30
2019-02-19T12:50:58.286Z,97.80
2019-02-19T12:53:29.383Z,97.70
2019-02-19T12:56:00.526Z,97.70
2019-02-19T12:58:31.339Z,97.60
2019-02-19T13:01:02.113Z,97.40
2019-02-19T13:03:32.700Z,97.40
2019-02-19T13:06:03.310Z,97.30
2019-02-19T13:08:33.906Z,97.30
2019-02-19T13:11:05.404Z,97.20
2019-02-19T13:13:36.184Z,97.00
2019-02-19T13:16:06.968Z,97.10
2019-02-19T13:18:37.573Z,97.00
2019-02-19T13:21:08.680Z,97.00
2019-02-19T13:23:39.433Z,97.00
2019-02-19T13:26:10.064Z,96.90
2019-02-19T13:28:41.078Z,97.00
2019-02-19T13:31:12.120Z,96.90
2019-02-19T13:33:43.107Z,96.90
2019-02-19T13:36:13.548Z,97.00
2019-02-19T13:38:44.531Z,97.00
2019-02-19T13:41:15.580Z,96.80
2019-02-19T13:43:46.205Z,96.80
2019-02-19T13:46:17.239Z,96.80
2019-02-19T13:48:47.919Z,96.80
2019-02-19T13:51:18.583Z,96.50
2019-02-19T13:53:54.114Z,96.50
2019-02-19T13:56:24.861Z,96.50
2019-02-19T13:58:55.554Z,96.50
2019-02-19T14:01:26.228Z,96.40
2019-02-19T14:03:57.251Z,96.50
2019-02-19T14:06:28.002Z,96.70
2019-02-19T14:08:59.073Z,96.60
2019-02-19T14:11:29.761Z,96.60
2019-02-19T14:14:02.017Z,96.60
2019-02-19T14:16:34.126Z,96.70
2019-02-19T14:19:06.363Z,96.50
2019-02-19T14:21:50.815Z,96.70
2019-02-19T14:24:23.394Z,96.60
2019-02-19T14:27:07.847Z,96.70
2019-02-19T14:29:40.432Z,96.60
2019-02-19T14:32:12.695Z,96.70
2019-02-19T14:35:01.144Z,96.60
2019-02-19T14:37:45.601Z,96.70
2019-02-19T14:40:18.177Z,96.70
2019-02-19T14:42:59.149Z,96.80
2019-02-19T14:45:34.389Z,96.80
2019-02-19T14:48:19.253Z,96.70
2019-02-19T14:50:57.976Z,96.60
2019-02-19T14:53:39.653Z,96.60
2019-02-19T14:56:27.433Z,96.60
2019-02-19T14:59:09.088Z,96.60
2019-02-19T15:01:44.053Z,96.70
2019-02-19T15:04:16.698Z,96.70
2019-02-19T15:06:52.117Z,96.60
2019-02-19T15:09:24.719Z,96.60
2019-02-19T15:12:00.366Z,96.50
2019-02-19T15:14:32.943Z,96.60
2019-02-19T15:17:17.193Z,96.60
2019-02-19T15:20:06.156Z,96.60
2019-02-19T15:22:47.920Z,96.60
2019-02-19T15:25:23.597Z,96.50
2019-02-19T15:28:11.533Z,96.40
2019-02-19T15:31:00.289Z,96.50
2019-02-19T15:33:45.065Z,96.50
2019-02-19T15:36:23.586Z,96.80
2019-02-19T15:39:01.777Z,96.50
2019-02-19T15:41:34.357Z,96.40
2019-02-19T15:44:06.930Z,96.40
2019-02-19T15:46:45.450Z,96.50
2019-02-19T15:49:30.727Z,96.40
2019-02-19T15:52:12.308Z,96.50
2019-02-19T15:55:01.270Z,96.40
2019-02-19T15:57:50.033Z,96.40
2019-02-19T16:00:31.443Z,96.50
2019-02-19T16:03:09.311Z,96.50
2019-02-19T16:05:50.901Z,96.50
2019-02-19T16:08:41.506Z,96.50
2019-02-19T16:11:23.086Z,96.50
2019-02-19T16:14:07.885Z,96.40
2019-02-19T16:16:59.664Z,96.40
2019-02-19T16:19:32.618Z,96.40
2019-02-19T16:22:05.239Z,96.70
2019-02-19T16:24:40.273Z,96.40
2019-02-19T16:27:29.237Z,96.40
2019-02-19T16:30:01.402Z,96.30
2019-02-19T16:32:50.108Z,96.40
2019-02-19T16:35:25.399Z,96.40
2019-02-19T16:38:07.303Z,96.40
2019-02-19T16:40:39.408Z,96.30
2019-02-19T16:43:39.172Z,96.40
2019-02-19T16:46:11.383Z,96.30
2019-02-19T16:48:46.393Z,96.30
2019-02-19T16:51:27.517Z,96.30
2019-02-19T16:54:09.068Z,96.30
2019-02-19T16:56:47.657Z,96.30
2019-02-19T16:59:20.235Z,96.40
2019-02-19T17:02:02.437Z,96.30
2019-02-19T17:04:53.446Z,96.30
2019-02-19T17:07:34.731Z,96.30
2019-02-19T17:10:15.086Z,96.30
2019-02-19T17:13:04.055Z,96.40
2019-02-19T17:15:48.711Z,96.30
2019-02-19T17:18:27.635Z,96.30
2019-02-19T17:21:09.118Z,96.30
2019-02-19T17:23:44.310Z,96.30
2019-02-19T17:26:33.115Z,96.30
2019-02-19T17:29:08.218Z,96.30
2019-02-19T17:31:46.458Z,96.30
2019-02-19T17:34:24.746Z,96.40
2019-02-19T17:36:57.248Z,96.40
2019-02-19T17:39:45.793Z,96.30
2019-02-19T17:42:21.238Z,96.30
2019-02-19T17:44:57.093Z,96.30
2019-02-19T17:47:45.849Z,96.30
2019-02-19T17:50:38.507Z,96.30
2019-02-19T17:53:24.079Z,96.30
2019-02-19T17:56:02.598Z,96.30
2019-02-19T17:58:38.044Z,96.30
2019-02-19T18:01:10.352Z,96.30
2019-02-19T18:04:01.609Z,96.30
2019-02-19T18:06:49.161Z,96.30
2019-02-19T18:09:28.806Z,96.30
2019-02-19T18:12:08.248Z,96.30
2019-02-19T18:14:46.956Z,96.30
2019-02-19T18:17:28.722Z,96.30
2019-02-19T18:19:59.819Z,96.30
2019-02-19T18:22:32.362Z,96.30
2019-02-19T18:25:03.734Z,96.30
2019-02-19T18:27:34.809Z,96.20
2019-02-19T18:30:07.881Z,96.30
2019-02-19T18:32:38.696Z,96.30
2019-02-19T18:35:09.756Z,96.30
2019-02-19T18:37:40.699Z,96.30
2019-02-19T18:40:11.311Z,96.40
2019-02-19T18:42:41.978Z,96.40
2019-02-19T18:45:12.898Z,96.40
2019-02-19T18:47:43.458Z,96.30
2019-02-19T18:50:13.931Z,96.30
2019-02-19T18:52:45.113Z,96.30
2019-02-19T18:55:16.119Z,96.30
2019-02-19T18:57:46.795Z,96.30
2019-02-19T19:00:17.497Z,96.30
2019-02-19T19:02:48.204Z,96.30
2019-02-19T19:05:18.832Z,96.30
2019-02-19T19:07:49.512Z,96.30
2019-02-19T19:10:19.930Z,96.30
2019-02-19T19:12:51.078Z,96.20
2019-02-19T19:15:21.789Z,96.30
2019-02-19T19:17:52.464Z,96.30
2019-02-19T19:20:23.149Z,96.30
2019-02-19T19:22:53.738Z,96.30
2019-02-19T19:25:24.406Z,96.20
2019-02-19T19:27:55.549Z,96.20
2019-02-19T19:30:26.522Z,96.30
2019-02-19T19:32:57.296Z,96.10
2019-02-19T19:35:28.024Z,96.20
2019-02-19T19:37:59.231Z,96.20
2019-02-19T19:40:29.791Z,96.20
2019-02-19T19:43:00.899Z,96.20
2019-02-19T19:45:31.699Z,96.20
2019-02-19T19:48:02.371Z,96.20
2019-02-19T19:50:32.920Z,96.20
2019-02-19T19:53:03.709Z,96.20
2019-02-19T19:55:34.355Z,96.20
2019-02-19T19:58:05.416Z,96.20
2019-02-19T20:00:36.358Z,96.60
2019-02-19T20:03:07.343Z,96.30
2019-02-19T20:05:38.775Z,96.30
2019-02-19T20:08:09.678Z,96.30
2019-02-19T20:10:41.064Z,96.20
2019-02-19T20:13:12.855Z,96.30
2019-02-19T20:15:47.798Z,96.20
2019-02-19T20:18:19.918Z,96.30
2019-02-19T20:20:52.247Z,96.20
2019-02-19T20:23:24.467Z,96.20
2019-02-19T20:25:56.521Z,96.30
2019-02-19T20:28:28.466Z,96.30
2019-02-19T20:31:03.609Z,96.30
2019-02-19T20:33:35.886Z,96.20
2019-02-19T20:36:07.423Z,96.20
2019-02-19T20:38:41.782Z,96.20
2019-02-19T20:41:13.044Z,96.20
2019-02-19T20:43:43.760Z,96.20
2019-02-19T20:46:14.527Z,96.30
2019-02-19T20:48:45.434Z,96.20
2019-02-19T20:51:16.380Z,96.20
2019-02-19T20:53:47.427Z,96.10
2019-02-19T20:56:18.729Z,96.20
2019-02-19T20:58:49.941Z,96.20
2019-02-19T21:01:20.941Z,96.20
2019-02-19T21:03:54.101Z,96.10
2019-02-19T21:06:25.041Z,96.10
2019-02-19T21:08:56.053Z,96.00
2019-02-19T21:11:27.751Z,96.10
2019-02-19T21:14:03.175Z,96.00
2019-02-19T21:16:34.755Z,96.10
2019-02-19T21:19:05.892Z,95.90
2019-02-19T21:21:44.604Z,96.00
2019-02-19T21:24:09.024Z,96.10
2019-02-19T21:26:40.134Z,95.80
2019-02-19T21:29:11.504Z,96.00
2019-02-19T21:31:42.202Z,95.90
2019-02-19T21:34:12.747Z,95.90
2019-02-19T21:36:43.745Z,96.00
2019-02-19T21:39:14.512Z,95.90
2019-02-19T21:41:45.383Z,96.00
2019-02-19T21:44:15.902Z,95.90
2019-02-19T21:46:46.850Z,95.70
2019-02-19T21:49:17.684Z,95.80
2019-02-19T21:51:54.007Z,95.70
2019-02-19T21:54:20.540Z,95.80
2019-02-19T21:56:51.174Z,95.50
2019-02-19T21:59:22.056Z,95.60
2019-02-19T22:01:53.130Z,95.70
2019-02-19T22:04:23.832Z,95.70
2019-02-19T22:06:54.450Z,95.80
2019-02-19T22:09:25.581Z,95.80
2019-02-19T22:11:56.190Z,95.80
2019-02-19T22:14:26.797Z,95.70
2019-02-19T22:16:57.469Z,95.60
2019-02-19T22:19:28.099Z,95.70
2019-02-19T22:22:03.454Z,95.80
2019-02-19T22:24:35.957Z,95.70
2019-02-19T22:27:07.429Z,95.70
2019-02-19T22:29:38.065Z,95.70
2019-02-19T22:32:11.507Z,96.00
2019-02-19T22:34:42.586Z,95.80
2019-02-19T22:37:12.976Z,95.80
2019-02-19T22:39:43.794Z,95.80
2019-02-19T22:42:14.547Z,95.70
2019-02-19T22:44:45.531Z,95.70
2019-02-19T22:47:16.602Z,95.60
2019-02-19T22:49:47.224Z,95.50
2019-02-19T22:52:18.344Z,95.60
2019-02-19T22:54:53.436Z,95.60
2019-02-19T22:57:24.139Z,95.60
2019-02-19T22:59:54.830Z,95.50
2019-02-19T23:02:25.688Z,95.60
2019-02-19T23:04:56.336Z,95.70
2019-02-19T23:07:26.899Z,95.80
2019-02-19T23:09:57.749Z,95.70
2019-02-19T23:12:28.337Z,95.80
2019-02-19T23:14:59.251Z,95.60
2019-02-19T23:17:29.835Z,95.70
2019-02-19T23:20:00.675Z,95.90
2019-02-19T23:22:31.487Z,95.70
2019-02-19T23:25:03.098Z,95.90
2019-02-19T23:27:33.821Z,95.90
2019-02-19T23:30:05.673Z,95.90
2019-02-19T23:32:36.293Z,95.90
2019-02-19T23:35:14.805Z,96.00
2019-02-19T23:37:45.494Z,95.80
2019-02-19T23:40:15.963Z,95.80
2019-02-19T23:42:46.695Z,95.80
2019-02-19T23:45:17.189Z,95.80
2019-02-19T23:47:47.689Z,95.90
2019-02-19T23:50:18.493Z,95.90
2019-02-19T23:52:49.148Z,95.90
2019-02-19T23:55:19.678Z,95.70
2019-02-19T23:57:50.246Z,95.80
